Station Historical Data
Daily Summary for April 30, 2017 Units:  Both    English   Metric
« Previous Day
Next Day »
Daily Weekly Monthly Yearly Custom
  High: Low: Average:
Temperature: 64.6 °F /  18.1 °C 38.6 °F /  3.7 °C 47.9 °F /  8.8 °C
Dew Point: 52.0 °F /  11.1 °C 30.8 °F /  -0.7 °C 39.9 °F /  4.4 °C
Humidity: 91% 62% 74%
Wind Speed: 13.0mph /  20.9km/h - 5.8mph /  9.3km/h
Wind Gust: 25.0mph /  40.2km/h - -
Wind- - ENE
Pressure: 30.32 in /  1026.6 hPa 29.86 in /  1011.1 hPa -
Precipitation: 0.81 in /  20.57 mm    
Historical Graphs
 
 
Tabular Data for April 30, 2017
Time Temperature Dew Point Pressure Wind Wind Speed Wind Gust Humidity Rainfall Rate (Hourly)
00:00 44.3 °F /  6.8 °C 33.3 °F /  0.7 °C 30.25in /  1024.3hPa NNE 1.0mph /  1.6km/h 3.0mph /  4.8km/h 65% 0.00in /  0mm
00:05 44.3 °F /  6.8 °C 33.3 °F /  0.7 °C 30.26in /  1024.6hPa Calm   3.0mph /  4.8km/h 65% 0.00in /  0mm
00:10 44.1 °F /  6.7 °C 33.1 °F /  0.6 °C 30.26in /  1024.6hPa NNE 2.0mph /  3.2km/h 3.0mph /  4.8km/h 65% 0.00in /  0mm
00:15 44.1 °F /  6.7 °C 33.5 °F /  0.8 °C 30.26in /  1024.6hPa NNE 1.0mph /  1.6km/h 5.0mph /  8km/h 66% 0.00in /  0mm
00:20 44.0 °F /  6.7 °C 33.4 °F /  0.8 °C 30.25in /  1024.3hPa Calm   3.0mph /  4.8km/h 66% 0.00in /  0mm
00:25 44.0 °F /  6.7 °C 33.0 °F /  0.6 °C 30.25in /  1024.3hPa NE 2.0mph /  3.2km/h 3.0mph /  4.8km/h 65% 0.00in /  0mm
00:30 44.1 °F /  6.7 °C 33.1 °F /  0.6 °C 30.26in /  1024.6hPa NE 3.0mph /  4.8km/h 4.0mph /  6.4km/h 65% 0.00in /  0mm
00:35 44.1 °F /  6.7 °C 32.7 °F /  0.4 °C 30.26in /  1024.6hPa NE 2.0mph /  3.2km/h 5.0mph /  8km/h 64% 0.00in /  0mm
00:40 44.0 °F /  6.7 °C 33.0 °F /  0.6 °C 30.26in /  1024.6hPa NE 2.0mph /  3.2km/h 5.0mph /  8km/h 65% 0.00in /  0mm
00:45 43.9 °F /  6.6 °C 32.9 °F /  0.5 °C 30.26in /  1024.6hPa NE 1.0mph /  1.6km/h 4.0mph /  6.4km/h 65% 0.00in /  0mm
00:50 43.8 °F /  6.6 °C 33.2 °F /  0.7 °C 30.25in /  1024.3hPa NE 1.0mph /  1.6km/h 4.0mph /  6.4km/h 66% 0.00in /  0mm
00:55 43.7 °F /  6.5 °C 32.7 °F /  0.4 °C 30.25in /  1024.3hPa NE 2.0mph /  3.2km/h 7.0mph /  11.3km/h 65% 0.00in /  0mm
01:00 43.8 °F /  6.6 °C 32.8 °F /  0.4 °C 30.25in /  1024.3hPa NE 2.0mph /  3.2km/h 5.0mph /  8km/h 65% 0.00in /  0mm
01:05 43.7 °F /  6.5 °C 33.1 °F /  0.6 °C 30.25in /  1024.3hPa NE 2.0mph /  3.2km/h 5.0mph /  8km/h 66% 0.00in /  0mm
01:10 43.5 °F /  6.4 °C 32.9 °F /  0.5 °C 30.25in /  1024.3hPa NE 2.0mph /  3.2km/h 5.0mph /  8km/h 66% 0.00in /  0mm
01:15 43.4 °F /  6.3 °C 33.2 °F /  0.7 °C 30.25in /  1024.3hPa NE 2.0mph /  3.2km/h 4.0mph /  6.4km/h 67% 0.00in /  0mm
01:20 43.3 °F /  6.3 °C 33.1 °F /  0.6 °C 30.25in /  1024.3hPa NE 2.0mph /  3.2km/h 4.0mph /  6.4km/h 67% 0.00in /  0mm
01:25 43.1 °F /  6.2 °C 32.9 °F /  0.5 °C 30.25in /  1024.3hPa NE 1.0mph /  1.6km/h 3.0mph /  4.8km/h 67% 0.00in /  0mm
01:30 43.1 °F /  6.2 °C 32.9 °F /  0.5 °C 30.25in /  1024.3hPa NE 2.0mph /  3.2km/h 4.0mph /  6.4km/h 67% 0.00in /  0mm
01:35 43.1 °F /  6.2 °C 32.9 °F /  0.5 °C 30.25in /  1024.3hPa NE 2.0mph /  3.2km/h 4.0mph /  6.4km/h 67% 0.00in /  0mm
01:40 43.1 °F /  6.2 °C 32.9 °F /  0.5 °C 30.24in /  1023.9hPa NE 2.0mph /  3.2km/h 4.0mph /  6.4km/h 67% 0.00in /  0mm
01:45 43.2 °F /  6.2 °C 33.0 °F /  0.6 °C 30.23in /  1023.6hPa NE 3.0mph /  4.8km/h 5.0mph /  8km/h 67% 0.00in /  0mm
01:50 43.1 °F /  6.2 °C 32.9 °F /  0.5 °C 30.23in /  1023.6hPa NE 3.0mph /  4.8km/h 6.0mph /  9.7km/h 67% 0.00in /  0mm
01:55 43.1 °F /  6.2 °C 33.3 °F /  0.7 °C 30.23in /  1023.6hPa NE 3.0mph /  4.8km/h 6.0mph /  9.7km/h 68% 0.00in /  0mm
02:00 43.0 °F /  6.1 °C 33.2 °F /  0.7 °C 30.22in /  1023.2hPa ENE 4.0mph /  6.4km/h 6.0mph /  9.7km/h 68% 0.00in /  0mm
02:05 43.0 °F /  6.1 °C 33.2 °F /  0.7 °C 30.22in /  1023.2hPa NE 5.0mph /  8km/h 7.0mph /  11.3km/h 68% 0.00in /  0mm
02:10 43.0 °F /  6.1 °C 33.2 °F /  0.7 °C 30.21in /  1022.9hPa NE 4.0mph /  6.4km/h 7.0mph /  11.3km/h 68% 0.00in /  0mm
02:15 42.9 °F /  6.1 °C 33.1 °F /  0.6 °C 30.21in /  1022.9hPa NE 3.0mph /  4.8km/h 7.0mph /  11.3km/h 68% 0.00in /  0mm
02:20 43.0 °F /  6.1 °C 32.8 °F /  0.4 °C 30.21in /  1022.9hPa NE 3.0mph /  4.8km/h 7.0mph /  11.3km/h 67% 0.00in /  0mm
02:25 43.0 °F /  6.1 °C 32.8 °F /  0.4 °C 30.21in /  1022.9hPa ENE 4.0mph /  6.4km/h 8.0mph /  12.9km/h 67% 0.00in /  0mm
02:30 43.0 °F /  6.1 °C 32.8 °F /  0.4 °C 30.22in /  1023.2hPa ENE 3.0mph /  4.8km/h 6.0mph /  9.7km/h 67% 0.00in /  0mm
02:35 43.0 °F /  6.1 °C 32.8 °F /  0.4 °C 30.21in /  1022.9hPa NE 3.0mph /  4.8km/h 7.0mph /  11.3km/h 67% 0.00in /  0mm
02:40 42.8 °F /  6 °C 33.0 °F /  0.6 °C 30.21in /  1022.9hPa NE 3.0mph /  4.8km/h 7.0mph /  11.3km/h 68% 0.00in /  0mm
02:45 42.8 °F /  6 °C 32.6 °F /  0.3 °C 30.21in /  1022.9hPa NE 3.0mph /  4.8km/h 6.0mph /  9.7km/h 67% 0.00in /  0mm
02:50 42.8 °F /  6 °C 32.6 °F /  0.3 °C 30.21in /  1022.9hPa NE 3.0mph /  4.8km/h 7.0mph /  11.3km/h 67% 0.00in /  0mm
02:55 42.7 °F /  5.9 °C 32.9 °F /  0.5 °C 30.20in /  1022.6hPa NE 3.0mph /  4.8km/h 7.0mph /  11.3km/h 68% 0.00in /  0mm
03:00 42.8 °F /  6 °C 33.0 °F /  0.6 °C 30.20in /  1022.6hPa ENE 3.0mph /  4.8km/h 6.0mph /  9.7km/h 68% 0.00in /  0mm
03:05 42.8 °F /  6 °C 33.0 °F /  0.6 °C 30.20in /  1022.6hPa NE 3.0mph /  4.8km/h 7.0mph /  11.3km/h 68% 0.00in /  0mm
03:10 42.9 °F /  6.1 °C 33.1 °F /  0.6 °C 30.19in /  1022.2hPa NE 6.0mph /  9.7km/h 9.0mph /  14.5km/h 68% 0.00in /  0mm
03:15 42.9 °F /  6.1 °C 33.4 °F /  0.8 °C 30.19in /  1022.2hPa NE 3.0mph /  4.8km/h 9.0mph /  14.5km/h 69% 0.00in /  0mm
03:20 42.9 °F /  6.1 °C 33.1 °F /  0.6 °C 30.19in /  1022.2hPa NE 3.0mph /  4.8km/h 9.0mph /  14.5km/h 68% 0.00in /  0mm
03:25 43.0 °F /  6.1 °C 33.2 °F /  0.7 °C 30.19in /  1022.2hPa ENE 7.0mph /  11.3km/h 10.0mph /  16.1km/h 68% 0.00in /  0mm
03:30 43.0 °F /  6.1 °C 33.5 °F /  0.8 °C 30.20in /  1022.6hPa NE 6.0mph /  9.7km/h 9.0mph /  14.5km/h 69% 0.00in /  0mm
03:35 43.0 °F /  6.1 °C 33.5 °F /  0.8 °C 30.19in /  1022.2hPa NE 5.0mph /  8km/h 9.0mph /  14.5km/h 69% 0.00in /  0mm
03:40 43.0 °F /  6.1 °C 33.5 °F /  0.8 °C 30.19in /  1022.2hPa NE 5.0mph /  8km/h 10.0mph /  16.1km/h 69% 0.00in /  0mm
03:45 43.1 °F /  6.2 °C 33.6 °F /  0.9 °C 30.18in /  1021.9hPa NE 6.0mph /  9.7km/h 12.0mph /  19.3km/h 69% 0.00in /  0mm
03:50 43.1 °F /  6.2 °C 33.6 °F /  0.9 °C 30.18in /  1021.9hPa NE 7.0mph /  11.3km/h 12.0mph /  19.3km/h 69% 0.00in /  0mm
03:55 43.2 °F /  6.2 °C 33.7 °F /  0.9 °C 30.18in /  1021.9hPa NE 7.0mph /  11.3km/h 16.0mph /  25.7km/h 69% 0.00in /  0mm
04:00 43.3 °F /  6.3 °C 33.8 °F /  1 °C 30.18in /  1021.9hPa NE 7.0mph /  11.3km/h 16.0mph /  25.7km/h 69% 0.00in /  0mm
04:05 43.4 °F /  6.3 °C 33.9 °F /  1.1 °C 30.18in /  1021.9hPa NE 5.0mph /  8km/h 10.0mph /  16.1km/h 69% 0.00in /  0mm
04:10 43.5 °F /  6.4 °C 33.6 °F /  0.9 °C 30.17in /  1021.6hPa North 2.0mph /  3.2km/h 13.0mph /  20.9km/h 68% 0.00in /  0mm
04:15 43.6 °F /  6.4 °C 33.7 °F /  0.9 °C 30.17in /  1021.6hPa East 9.0mph /  14.5km/h 15.0mph /  24.1km/h 68% 0.00in /  0mm
04:20 43.6 °F /  6.4 °C 33.7 °F /  0.9 °C 30.18in /  1021.9hPa NE 1.0mph /  1.6km/h 11.0mph /  17.7km/h 68% 0.00in /  0mm
04:25 43.6 °F /  6.4 °C 33.4 °F /  0.8 °C 30.17in /  1021.6hPa NE 5.0mph /  8km/h 14.0mph /  22.5km/h 67% 0.00in /  0mm
04:30 43.7 °F /  6.5 °C 33.5 °F /  0.8 °C 30.16in /  1021.2hPa ENE 7.0mph /  11.3km/h 14.0mph /  22.5km/h 67% 0.00in /  0mm
04:35 43.6 °F /  6.4 °C 33.4 °F /  0.8 °C 30.16in /  1021.2hPa ENE 8.0mph /  12.9km/h 18.0mph /  29km/h 67% 0.00in /  0mm
04:40 43.5 °F /  6.4 °C 33.3 °F /  0.7 °C 30.17in /  1021.6hPa ENE 8.0mph /  12.9km/h 18.0mph /  29km/h 67% 0.00in /  0mm
04:45 43.5 °F /  6.4 °C 33.3 °F /  0.7 °C 30.17in /  1021.6hPa ENE 7.0mph /  11.3km/h 18.0mph /  29km/h 67% 0.00in /  0mm
04:50 43.5 °F /  6.4 °C 33.3 °F /  0.7 °C 30.17in /  1021.6hPa ENE 6.0mph /  9.7km/h 15.0mph /  24.1km/h 67% 0.00in /  0mm
04:55 43.4 °F /  6.3 °C 33.2 °F /  0.7 °C 30.17in /  1021.6hPa NE 5.0mph /  8km/h 16.0mph /  25.7km/h 67% 0.00in /  0mm
05:00 43.3 °F /  6.3 °C 33.1 °F /  0.6 °C 30.17in /  1021.6hPa ENE 8.0mph /  12.9km/h 16.0mph /  25.7km/h 67% 0.00in /  0mm
05:05 43.2 °F /  6.2 °C 32.6 °F /  0.3 °C 30.18in /  1021.9hPa East 11.0mph /  17.7km/h 14.0mph /  22.5km/h 66% 0.00in /  0mm
05:10 43.1 °F /  6.2 °C 32.1 °F /  0.1 °C 30.19in /  1022.2hPa East 9.0mph /  14.5km/h 17.0mph /  27.4km/h 65% 0.00in /  0mm
05:15 43.1 °F /  6.2 °C 32.1 °F /  0.1 °C 30.19in /  1022.2hPa East 8.0mph /  12.9km/h 17.0mph /  27.4km/h 65% 0.00in /  0mm
05:20 43.1 °F /  6.2 °C 31.7 °F /  -0.2 °C 30.20in /  1022.6hPa East 8.0mph /  12.9km/h 18.0mph /  29km/h 64% 0.00in /  0mm
05:25 43.2 °F /  6.2 °C 31.8 °F /  -0.1 °C 30.19in /  1022.2hPa East 10.0mph /  16.1km/h 13.0mph /  20.9km/h 64% 0.00in /  0mm
05:30 43.1 °F /  6.2 °C 31.7 °F /  -0.2 °C 30.19in /  1022.2hPa ENE 7.0mph /  11.3km/h 15.0mph /  24.1km/h 64% 0.00in /  0mm
05:35 43.1 °F /  6.2 °C 31.7 °F /  -0.2 °C 30.19in /  1022.2hPa ENE 7.0mph /  11.3km/h 15.0mph /  24.1km/h 64% 0.00in /  0mm
05:40 43.1 °F /  6.2 °C 31.7 °F /  -0.2 °C 30.19in /  1022.2hPa ENE 6.0mph /  9.7km/h 14.0mph /  22.5km/h 64% 0.00in /  0mm
05:45 43.1 °F /  6.2 °C 31.7 °F /  -0.2 °C 30.20in /  1022.6hPa East 7.0mph /  11.3km/h 15.0mph /  24.1km/h 64% 0.00in /  0mm
05:50 43.1 °F /  6.2 °C 31.7 °F /  -0.2 °C 30.19in /  1022.2hPa ESE 8.0mph /  12.9km/h 15.0mph /  24.1km/h 64% 0.00in /  0mm
05:55 43.1 °F /  6.2 °C 31.7 °F /  -0.2 °C 30.20in /  1022.6hPa ENE 11.0mph /  17.7km/h 15.0mph /  24.1km/h 64% 0.00in /  0mm
06:00 42.9 °F /  6.1 °C 31.6 °F /  -0.2 °C 30.20in /  1022.6hPa ENE 7.0mph /  11.3km/h 15.0mph /  24.1km/h 64% 0.00in /  0mm
06:05 42.9 °F /  6.1 °C 31.6 °F /  -0.2 °C 30.20in /  1022.6hPa ENE 7.0mph /  11.3km/h 15.0mph /  24.1km/h 64% 0.00in /  0mm
06:10 42.8 °F /  6 °C 31.5 °F /  -0.3 °C 30.19in /  1022.2hPa ENE 6.0mph /  9.7km/h 14.0mph /  22.5km/h 64% 0.00in /  0mm
06:15 42.8 °F /  6 °C 31.1 °F /  -0.5 °C 30.19in /  1022.2hPa ENE 7.0mph /  11.3km/h 19.0mph /  30.6km/h 63% 0.00in /  0mm
06:20 42.8 °F /  6 °C 31.1 °F /  -0.5 °C 30.19in /  1022.2hPa NE 11.0mph /  17.7km/h 15.0mph /  24.1km/h 63% 0.00in /  0mm
06:25 42.7 °F /  5.9 °C 31.0 °F /  -0.6 °C 30.18in /  1021.9hPa ENE 8.0mph /  12.9km/h 15.0mph /  24.1km/h 63% 0.00in /  0mm
06:30 42.6 °F /  5.9 °C 30.9 °F /  -0.6 °C 30.18in /  1021.9hPa ENE 8.0mph /  12.9km/h 15.0mph /  24.1km/h 63% 0.00in /  0mm
06:35 42.5 °F /  5.8 °C 30.8 °F /  -0.7 °C 30.16in /  1021.2hPa ENE 8.0mph /  12.9km/h 18.0mph /  29km/h 63% 0.00in /  0mm
06:40 42.5 °F /  5.8 °C 30.8 °F /  -0.7 °C 30.17in /  1021.6hPa East 8.0mph /  12.9km/h 15.0mph /  24.1km/h 63% 0.00in /  0mm
06:45 42.4 °F /  5.8 °C 31.1 °F /  -0.5 °C 30.17in /  1021.6hPa NE 7.0mph /  11.3km/h 17.0mph /  27.4km/h 64% 0.00in /  0mm
06:50 42.5 °F /  5.8 °C 31.2 °F /  -0.4 °C 30.18in /  1021.9hPa ESE 4.0mph /  6.4km/h 17.0mph /  27.4km/h 64% 0.00in /  0mm
06:55 42.6 °F /  5.9 °C 31.3 °F /  -0.4 °C 30.24in /  1023.9hPa NE 7.0mph /  11.3km/h 17.0mph /  27.4km/h 64% 0.00in /  0mm
07:00 42.8 °F /  6 °C 31.5 °F /  -0.3 °C 30.26in /  1024.6hPa North 4.0mph /  6.4km/h 9.0mph /  14.5km/h 64% 0.00in /  0mm
07:05 42.9 °F /  6.1 °C 32.3 °F /  0.2 °C 30.32in /  1026.6hPa NNW 5.0mph /  8km/h 15.0mph /  24.1km/h 66% 0.00in /  0mm
07:10 42.2 °F /  5.7 °C 33.1 °F /  0.6 °C 30.26in /  1024.6hPa NNE 3.0mph /  4.8km/h 11.0mph /  17.7km/h 70% 0.01in /  0.25mm
07:15 41.5 °F /  5.3 °C 33.5 °F /  0.8 °C 30.26in /  1024.6hPa NNE 5.0mph /  8km/h 8.0mph /  12.9km/h 73% 0.02in /  0.51mm
07:20 40.9 °F /  4.9 °C 33.6 °F /  0.9 °C 30.24in /  1023.9hPa NNE 4.0mph /  6.4km/h 9.0mph /  14.5km/h 75% 0.02in /  0.51mm
07:25 40.5 °F /  4.7 °C 33.5 °F /  0.8 °C 30.22in /  1023.2hPa NE 6.0mph /  9.7km/h 18.0mph /  29km/h 76% 0.02in /  0.51mm
07:30 40.3 °F /  4.6 °C 33.3 °F /  0.7 °C 30.20in /  1022.6hPa NE 8.0mph /  12.9km/h 20.0mph /  32.2km/h 76% 0.02in /  0.51mm
07:35 40.2 °F /  4.6 °C 33.2 °F /  0.7 °C 30.21in /  1022.9hPa NE 10.0mph /  16.1km/h 20.0mph /  32.2km/h 76% 0.02in /  0.51mm
07:40 40.2 °F /  4.6 °C 33.6 °F /  0.9 °C 30.20in /  1022.6hPa ENE 13.0mph /  20.9km/h 20.0mph /  32.2km/h 77% 0.02in /  0.51mm
07:45 40.6 °F /  4.8 °C 34.0 °F /  1.1 °C 30.20in /  1022.6hPa NE 7.0mph /  11.3km/h 21.0mph /  33.8km/h 77% 0.02in /  0.51mm
07:50 40.9 °F /  4.9 °C 34.2 °F /  1.2 °C 30.19in /  1022.2hPa NE 7.0mph /  11.3km/h 19.0mph /  30.6km/h 77% 0.02in /  0.51mm
07:55 41.1 °F /  5.1 °C 34.1 °F /  1.2 °C 30.18in /  1021.9hPa NE 10.0mph /  16.1km/h 22.0mph /  35.4km/h 76% 0.02in /  0.51mm
08:00 40.9 °F /  4.9 °C 33.6 °F /  0.9 °C 30.18in /  1021.9hPa NE 12.0mph /  19.3km/h 23.0mph /  37km/h 75% 0.02in /  0.51mm
08:05 40.9 °F /  4.9 °C 33.6 °F /  0.9 °C 30.18in /  1021.9hPa ENE 10.0mph /  16.1km/h 19.0mph /  30.6km/h 75% 0.02in /  0.51mm
08:10 40.8 °F /  4.9 °C 33.2 °F /  0.7 °C 30.18in /  1021.9hPa ENE 11.0mph /  17.7km/h 25.0mph /  40.2km/h 74% 0.01in /  0.25mm
08:15 40.7 °F /  4.8 °C 33.4 °F /  0.8 °C 30.20in /  1022.6hPa NE 13.0mph /  20.9km/h 20.0mph /  32.2km/h 75% 0.00in /  0mm
08:20 40.6 °F /  4.8 °C 33.3 °F /  0.7 °C 30.19in /  1022.2hPa ENE 10.0mph /  16.1km/h 20.0mph /  32.2km/h 75% 0.01in /  0.25mm
08:25 40.3 °F /  4.6 °C 33.3 °F /  0.7 °C 30.17in /  1021.6hPa ENE 9.0mph /  14.5km/h 19.0mph /  30.6km/h 76% 0.03in /  0.76mm
08:30 39.9 °F /  4.4 °C 33.6 °F /  0.9 °C 30.15in /  1020.9hPa East 9.0mph /  14.5km/h 19.0mph /  30.6km/h 78% 0.06in /  1.52mm
08:35 39.5 °F /  4.2 °C 33.8 °F /  1 °C 30.17in /  1021.6hPa ENE 9.0mph /  14.5km/h 18.0mph /  29km/h 80% 0.10in /  2.54mm
08:40 39.1 °F /  3.9 °C 33.8 °F /  1 °C 30.18in /  1021.9hPa ENE 8.0mph /  12.9km/h 17.0mph /  27.4km/h 81% 0.18in /  4.57mm
08:45 38.8 °F /  3.8 °C 33.8 °F /  1 °C 30.19in /  1022.2hPa ENE 8.0mph /  12.9km/h 17.0mph /  27.4km/h 82% 0.20in /  5.08mm
08:50 38.8 °F /  3.8 °C 34.1 °F /  1.2 °C 30.20in /  1022.6hPa ENE 7.0mph /  11.3km/h 13.0mph /  20.9km/h 83% 0.23in /  5.84mm
08:55 38.8 °F /  3.8 °C 34.4 °F /  1.3 °C 30.19in /  1022.2hPa East 7.0mph /  11.3km/h 15.0mph /  24.1km/h 84% 0.28in /  7.11mm
09:00 38.7 °F /  3.7 °C 34.3 °F /  1.3 °C 30.18in /  1021.9hPa SE 2.0mph /  3.2km/h 15.0mph /  24.1km/h 84% 0.34in /  8.64mm
09:05 38.6 °F /  3.7 °C 34.2 °F /  1.2 °C 30.18in /  1021.9hPa East 9.0mph /  14.5km/h 17.0mph /  27.4km/h 84% 0.39in /  9.91mm
09:10 38.6 °F /  3.7 °C 34.5 °F /  1.4 °C 30.19in /  1022.2hPa NNE 4.0mph /  6.4km/h 14.0mph /  22.5km/h 85% 0.41in /  10.41mm
09:15 38.7 °F /  3.7 °C 34.6 °F /  1.4 °C 30.20in /  1022.6hPa East 11.0mph /  17.7km/h 16.0mph /  25.7km/h 85% 0.42in /  10.67mm
09:20 38.7 °F /  3.7 °C 34.6 °F /  1.4 °C 30.21in /  1022.9hPa ENE 6.0mph /  9.7km/h 16.0mph /  25.7km/h 85% 0.43in /  10.92mm
09:25 38.8 °F /  3.8 °C 34.7 °F /  1.5 °C 30.21in /  1022.9hPa ENE 5.0mph /  8km/h 11.0mph /  17.7km/h 85% 0.40in /  10.16mm
09:30 38.9 °F /  3.8 °C 34.8 °F /  1.6 °C 30.19in /  1022.2hPa ENE 5.0mph /  8km/h 11.0mph /  17.7km/h 85% 0.37in /  9.4mm
09:35 39.0 °F /  3.9 °C 34.6 °F /  1.4 °C 30.18in /  1021.9hPa ENE 6.0mph /  9.7km/h 14.0mph /  22.5km/h 84% 0.34in /  8.64mm
09:40 39.0 °F /  3.9 °C 34.6 °F /  1.4 °C 30.17in /  1021.6hPa ENE 6.0mph /  9.7km/h 14.0mph /  22.5km/h 84% 0.25in /  6.35mm
09:45 39.2 °F /  4 °C 35.1 °F /  1.7 °C 30.17in /  1021.6hPa ENE 6.0mph /  9.7km/h 14.0mph /  22.5km/h 85% 0.24in /  6.1mm
09:50 39.4 °F /  4.1 °C 35.0 °F /  1.7 °C 30.16in /  1021.2hPa ESE 5.0mph /  8km/h 15.0mph /  24.1km/h 84% 0.21in /  5.33mm
09:55 39.6 °F /  4.2 °C 35.2 °F /  1.8 °C 30.16in /  1021.2hPa NE 5.0mph /  8km/h 14.0mph /  22.5km/h 84% 0.16in /  4.06mm
10:00 39.8 °F /  4.3 °C 35.4 °F /  1.9 °C 30.16in /  1021.2hPa ESE 1.0mph /  1.6km/h 12.0mph /  19.3km/h 84% 0.10in /  2.54mm
10:05 40.0 °F /  4.4 °C 35.6 °F /  2 °C 30.16in /  1021.2hPa ENE 8.0mph /  12.9km/h 8.0mph /  12.9km/h 84% 0.05in /  1.27mm
10:10 40.2 °F /  4.6 °C 35.8 °F /  2.1 °C 30.16in /  1021.2hPa East 3.0mph /  4.8km/h 12.0mph /  19.3km/h 84% 0.03in /  0.76mm
10:15 40.6 °F /  4.8 °C 36.1 °F /  2.3 °C 30.15in /  1020.9hPa ENE 5.0mph /  8km/h 12.0mph /  19.3km/h 84% 0.02in /  0.51mm
10:20 40.7 °F /  4.8 °C 36.2 °F /  2.3 °C 30.15in /  1020.9hPa East 6.0mph /  9.7km/h 11.0mph /  17.7km/h 84% 0.00in /  0mm
10:25 40.9 °F /  4.9 °C 36.1 °F /  2.3 °C 30.14in /  1020.5hPa East 5.0mph /  8km/h 11.0mph /  17.7km/h 83% 0.00in /  0mm
10:30 41.2 °F /  5.1 °C 36.4 °F /  2.4 °C 30.14in /  1020.5hPa ENE 3.0mph /  4.8km/h 10.0mph /  16.1km/h 83% 0.00in /  0mm
10:35 41.5 °F /  5.3 °C 36.7 °F /  2.6 °C 30.14in /  1020.5hPa East 5.0mph /  8km/h 13.0mph /  20.9km/h 83% 0.00in /  0mm
10:40 41.9 °F /  5.5 °C 36.8 °F /  2.7 °C 30.14in /  1020.5hPa ENE 6.0mph /  9.7km/h 13.0mph /  20.9km/h 82% 0.00in /  0mm
10:45 42.5 °F /  5.8 °C 37.4 °F /  3 °C 30.14in /  1020.5hPa NE 3.0mph /  4.8km/h 9.0mph /  14.5km/h 82% 0.00in /  0mm
10:50 43.1 °F /  6.2 °C 37.7 °F /  3.2 °C 30.13in /  1020.2hPa ENE 4.0mph /  6.4km/h 9.0mph /  14.5km/h 81% 0.00in /  0mm
10:55 43.6 °F /  6.4 °C 38.2 °F /  3.4 °C 30.12in /  1019.9hPa ENE 5.0mph /  8km/h 14.0mph /  22.5km/h 81% 0.00in /  0mm
11:00 44.3 °F /  6.8 °C 38.2 °F /  3.4 °C 30.12in /  1019.9hPa ENE 6.0mph /  9.7km/h 14.0mph /  22.5km/h 79% 0.00in /  0mm
11:05 44.8 °F /  7.1 °C 38.7 °F /  3.7 °C 30.12in /  1019.9hPa NE 2.0mph /  3.2km/h 12.0mph /  19.3km/h 79% 0.00in /  0mm
11:10 45.2 °F /  7.3 °C 38.7 °F /  3.7 °C 30.12in /  1019.9hPa ENE 4.0mph /  6.4km/h 11.0mph /  17.7km/h 78% 0.00in /  0mm
11:15 45.6 °F /  7.6 °C 39.1 °F /  3.9 °C 30.12in /  1019.9hPa ENE 3.0mph /  4.8km/h 12.0mph /  19.3km/h 78% 0.00in /  0mm
11:20 46.0 °F /  7.8 °C 38.9 °F /  3.8 °C 30.12in /  1019.9hPa ENE 6.0mph /  9.7km/h 14.0mph /  22.5km/h 76% 0.00in /  0mm
11:25 46.2 °F /  7.9 °C 38.7 °F /  3.7 °C 30.12in /  1019.9hPa NE 3.0mph /  4.8km/h 16.0mph /  25.7km/h 75% 0.00in /  0mm
11:30 46.5 °F /  8.1 °C 39.0 °F /  3.9 °C 30.12in /  1019.9hPa East 10.0mph /  16.1km/h 17.0mph /  27.4km/h 75% 0.00in /  0mm
11:35 47.5 °F /  8.6 °C 39.6 °F /  4.2 °C 30.11in /  1019.5hPa NE 5.0mph /  8km/h 17.0mph /  27.4km/h 74% 0.00in /  0mm
11:40 48.9 °F /  9.4 °C 41.0 °F /  5 °C 30.11in /  1019.5hPa NE 8.0mph /  12.9km/h 12.0mph /  19.3km/h 74% 0.00in /  0mm
11:45 49.1 °F /  9.5 °C 40.1 °F /  4.5 °C 30.11in /  1019.5hPa SE 9.0mph /  14.5km/h 13.0mph /  20.9km/h 71% 0.00in /  0mm
11:50 49.0 °F /  9.4 °C 40.4 °F /  4.7 °C 30.10in /  1019.2hPa ENE 7.0mph /  11.3km/h 19.0mph /  30.6km/h 72% 0.00in /  0mm
11:55 49.0 °F /  9.4 °C 40.0 °F /  4.4 °C 30.10in /  1019.2hPa ENE 9.0mph /  14.5km/h 22.0mph /  35.4km/h 71% 0.00in /  0mm
12:00 50.0 °F /  10 °C 41.0 °F /  5 °C 30.10in /  1019.2hPa ENE 9.0mph /  14.5km/h 22.0mph /  35.4km/h 71% 0.00in /  0mm
12:05 50.3 °F /  10.2 °C 41.6 °F /  5.3 °C 30.09in /  1018.8hPa ENE 10.0mph /  16.1km/h 22.0mph /  35.4km/h 72% 0.00in /  0mm
12:10 50.4 °F /  10.2 °C 41.0 °F /  5 °C 30.08in /  1018.5hPa ENE 11.0mph /  17.7km/h 22.0mph /  35.4km/h 70% 0.00in /  0mm
12:15 50.2 °F /  10.1 °C 41.2 °F /  5.1 °C 30.08in /  1018.5hPa ENE 10.0mph /  16.1km/h 19.0mph /  30.6km/h 71% 0.00in /  0mm
12:20 50.4 °F /  10.2 °C 41.3 °F /  5.2 °C 30.08in /  1018.5hPa ENE 10.0mph /  16.1km/h 19.0mph /  30.6km/h 71% 0.00in /  0mm
12:25 50.9 °F /  10.5 °C 41.5 °F /  5.3 °C 30.08in /  1018.5hPa East 7.0mph /  11.3km/h 17.0mph /  27.4km/h 70% 0.00in /  0mm
12:30 51.6 °F /  10.9 °C 42.1 °F /  5.6 °C 30.08in /  1018.5hPa East 10.0mph /  16.1km/h 18.0mph /  29km/h 70% 0.00in /  0mm
12:35 51.9 °F /  11.1 °C 41.7 °F /  5.4 °C 30.07in /  1018.2hPa NE 9.0mph /  14.5km/h 22.0mph /  35.4km/h 68% 0.00in /  0mm
12:40 51.8 °F /  11 °C 41.9 °F /  5.5 °C 30.06in /  1017.8hPa NE 6.0mph /  9.7km/h 19.0mph /  30.6km/h 69% 0.00in /  0mm
12:45 51.9 °F /  11.1 °C 41.7 °F /  5.4 °C 30.06in /  1017.8hPa NE 11.0mph /  17.7km/h 17.0mph /  27.4km/h 68% 0.00in /  0mm
12:50 52.1 °F /  11.2 °C 42.2 °F /  5.7 °C 30.06in /  1017.8hPa NE 10.0mph /  16.1km/h 20.0mph /  32.2km/h 69% 0.00in /  0mm
12:55 52.1 °F /  11.2 °C 42.2 °F /  5.7 °C 30.05in /  1017.5hPa NE 11.0mph /  17.7km/h 20.0mph /  32.2km/h 69% 0.00in /  0mm
13:00 52.6 °F /  11.4 °C 42.7 °F /  5.9 °C 30.05in /  1017.5hPa NE 10.0mph /  16.1km/h 18.0mph /  29km/h 69% 0.00in /  0mm
13:05 53.1 °F /  11.7 °C 42.4 °F /  5.8 °C 30.05in /  1017.5hPa NE 9.0mph /  14.5km/h 21.0mph /  33.8km/h 67% 0.00in /  0mm
13:10 53.6 °F /  12 °C 43.7 °F /  6.5 °C 30.05in /  1017.5hPa NE 7.0mph /  11.3km/h 20.0mph /  32.2km/h 69% 0.00in /  0mm
13:15 53.8 °F /  12.1 °C 43.5 °F /  6.4 °C 30.05in /  1017.5hPa NE 9.0mph /  14.5km/h 18.0mph /  29km/h 68% 0.00in /  0mm
13:20 53.8 °F /  12.1 °C 44.2 °F /  6.8 °C 30.05in /  1017.5hPa NE 8.0mph /  12.9km/h 18.0mph /  29km/h 70% 0.00in /  0mm
13:25 54.0 °F /  12.2 °C 44.1 °F /  6.7 °C 30.04in /  1017.2hPa NE 10.0mph /  16.1km/h 16.0mph /  25.7km/h 69% 0.00in /  0mm
13:30 54.1 °F /  12.3 °C 44.9 °F /  7.2 °C 30.03in /  1016.8hPa NE 6.0mph /  9.7km/h 14.0mph /  22.5km/h 71% 0.00in /  0mm
13:35 53.9 °F /  12.2 °C 44.7 °F /  7.1 °C 30.03in /  1016.8hPa NE 11.0mph /  17.7km/h 12.0mph /  19.3km/h 71% 0.00in /  0mm
13:40 53.3 °F /  11.8 °C 44.1 °F /  6.7 °C 30.03in /  1016.8hPa NE 5.0mph /  8km/h 14.0mph /  22.5km/h 71% 0.00in /  0mm
13:45 53.9 °F /  12.2 °C 45.1 °F /  7.3 °C 30.03in /  1016.8hPa NE 7.0mph /  11.3km/h 9.0mph /  14.5km/h 72% 0.00in /  0mm
13:50 53.5 °F /  11.9 °C 44.3 °F /  6.8 °C 30.04in /  1017.2hPa NE 6.0mph /  9.7km/h 13.0mph /  20.9km/h 71% 0.00in /  0mm
13:55 53.5 °F /  11.9 °C 44.7 °F /  7.1 °C 30.04in /  1017.2hPa NE 6.0mph /  9.7km/h 13.0mph /  20.9km/h 72% 0.00in /  0mm
14:00 53.4 °F /  11.9 °C 44.2 °F /  6.8 °C 30.03in /  1016.8hPa NE 6.0mph /  9.7km/h 15.0mph /  24.1km/h 71% 0.00in /  0mm
14:05 53.4 °F /  11.9 °C 44.2 °F /  6.8 °C 30.02in /  1016.5hPa NE 12.0mph /  19.3km/h 16.0mph /  25.7km/h 71% 0.00in /  0mm
14:10 53.5 °F /  11.9 °C 44.3 °F /  6.8 °C 30.02in /  1016.5hPa NE 10.0mph /  16.1km/h 14.0mph /  22.5km/h 71% 0.00in /  0mm
14:15 53.3 °F /  11.8 °C 44.1 °F /  6.7 °C 30.02in /  1016.5hPa NE 7.0mph /  11.3km/h 12.0mph /  19.3km/h 71% 0.00in /  0mm
14:20 53.1 °F /  11.7 °C 43.9 °F /  6.6 °C 30.02in /  1016.5hPa NE 8.0mph /  12.9km/h 15.0mph /  24.1km/h 71% 0.00in /  0mm
14:25 53.6 °F /  12 °C 44.8 °F /  7.1 °C 30.01in /  1016.1hPa NE 8.0mph /  12.9km/h 15.0mph /  24.1km/h 72% 0.00in /  0mm
14:30 53.2 °F /  11.8 °C 44.4 °F /  6.9 °C 30.01in /  1016.1hPa NE 7.0mph /  11.3km/h 17.0mph /  27.4km/h 72% 0.00in /  0mm
14:35 53.5 °F /  11.9 °C 44.7 °F /  7.1 °C 30.00in /  1015.8hPa NE 7.0mph /  11.3km/h 17.0mph /  27.4km/h 72% 0.00in /  0mm
14:40 54.4 °F /  12.4 °C 44.8 °F /  7.1 °C 30.00in /  1015.8hPa NE 7.0mph /  11.3km/h 16.0mph /  25.7km/h 70% 0.00in /  0mm
14:45 54.7 °F /  12.6 °C 45.8 °F /  7.7 °C 30.00in /  1015.8hPa NE 7.0mph /  11.3km/h 13.0mph /  20.9km/h 72% 0.00in /  0mm
14:50 54.9 °F /  12.7 °C 45.3 °F /  7.4 °C 30.00in /  1015.8hPa NNE 8.0mph /  12.9km/h 16.0mph /  25.7km/h 70% 0.00in /  0mm
14:55 55.3 °F /  12.9 °C 46.1 °F /  7.8 °C 30.00in /  1015.8hPa NE 5.0mph /  8km/h 14.0mph /  22.5km/h 71% 0.00in /  0mm
15:00 55.7 °F /  13.2 °C 45.7 °F /  7.6 °C 30.00in /  1015.8hPa NNE 8.0mph /  12.9km/h 15.0mph /  24.1km/h 69% 0.00in /  0mm
15:05 55.2 °F /  12.9 °C 45.2 °F /  7.3 °C 30.00in /  1015.8hPa NNE 6.0mph /  9.7km/h 18.0mph /  29km/h 69% 0.00in /  0mm
15:10 55.3 °F /  12.9 °C 45.7 °F /  7.6 °C 30.00in /  1015.8hPa NE 8.0mph /  12.9km/h 8.0mph /  12.9km/h 70% 0.00in /  0mm
15:15 55.7 °F /  13.2 °C 46.1 °F /  7.8 °C 29.99in /  1015.5hPa ENE 12.0mph /  19.3km/h 13.0mph /  20.9km/h 70% 0.00in /  0mm
15:20 56.8 °F /  13.8 °C 47.1 °F /  8.4 °C 30.00in /  1015.8hPa NE 7.0mph /  11.3km/h 13.0mph /  20.9km/h 70% 0.00in /  0mm
15:25 56.9 °F /  13.8 °C 46.8 °F /  8.2 °C 29.99in /  1015.5hPa NE 7.0mph /  11.3km/h 14.0mph /  22.5km/h 69% 0.00in /  0mm
15:30 56.4 °F /  13.6 °C 46.4 °F /  8 °C 29.98in /  1015.1hPa NE 8.0mph /  12.9km/h 17.0mph /  27.4km/h 69% 0.00in /  0mm
15:35 56.0 °F /  13.3 °C 46.0 °F /  7.8 °C 29.98in /  1015.1hPa NE 8.0mph /  12.9km/h 17.0mph /  27.4km/h 69% 0.00in /  0mm
15:40 56.9 °F /  13.8 °C 47.2 °F /  8.4 °C 29.98in /  1015.1hPa NE 11.0mph /  17.7km/h 13.0mph /  20.9km/h 70% 0.00in /  0mm
15:45 56.5 °F /  13.6 °C 46.4 °F /  8 °C 29.96in /  1014.4hPa NE 6.0mph /  9.7km/h 22.0mph /  35.4km/h 69% 0.00in /  0mm
15:50 57.5 °F /  14.2 °C 47.4 °F /  8.6 °C 29.97in /  1014.8hPa NE 9.0mph /  14.5km/h 22.0mph /  35.4km/h 69% 0.00in /  0mm
15:55 57.3 °F /  14.1 °C 46.8 °F /  8.2 °C 29.96in /  1014.4hPa NE 11.0mph /  17.7km/h 18.0mph /  29km/h 68% 0.00in /  0mm
16:00 57.9 °F /  14.4 °C 47.4 °F /  8.6 °C 29.96in /  1014.4hPa ENE 4.0mph /  6.4km/h 13.0mph /  20.9km/h 68% 0.00in /  0mm
16:05 58.2 °F /  14.6 °C 47.7 °F /  8.7 °C 29.95in /  1014.1hPa East 9.0mph /  14.5km/h 15.0mph /  24.1km/h 68% 0.00in /  0mm
16:10 58.4 °F /  14.7 °C 47.9 °F /  8.8 °C 29.95in /  1014.1hPa NE 9.0mph /  14.5km/h 17.0mph /  27.4km/h 68% 0.00in /  0mm
16:15 59.3 °F /  15.2 °C 48.3 °F /  9.1 °C 29.94in /  1013.8hPa NE 3.0mph /  4.8km/h 14.0mph /  22.5km/h 67% 0.00in /  0mm
16:20 59.6 °F /  15.3 °C 48.2 °F /  9 °C 29.94in /  1013.8hPa NE 8.0mph /  12.9km/h 14.0mph /  22.5km/h 66% 0.00in /  0mm
16:25 59.5 °F /  15.3 °C 48.1 °F /  8.9 °C 29.94in /  1013.8hPa ENE 4.0mph /  6.4km/h 17.0mph /  27.4km/h 66% 0.00in /  0mm
16:30 59.7 °F /  15.4 °C 48.3 °F /  9.1 °C 29.94in /  1013.8hPa NE 8.0mph /  12.9km/h 17.0mph /  27.4km/h 66% 0.00in /  0mm
16:35 60.3 °F /  15.7 °C 48.9 °F /  9.4 °C 29.93in /  1013.4hPa NE 7.0mph /  11.3km/h 14.0mph /  22.5km/h 66% 0.00in /  0mm
16:40 61.0 °F /  16.1 °C 49.1 °F /  9.5 °C 29.93in /  1013.4hPa NE 7.0mph /  11.3km/h 11.0mph /  17.7km/h 65% 0.00in /  0mm
16:45 61.4 °F /  16.3 °C 49.1 °F /  9.5 °C 29.92in /  1013.1hPa NE 5.0mph /  8km/h 13.0mph /  20.9km/h 64% 0.00in /  0mm
16:50 61.8 °F /  16.6 °C 49.9 °F /  9.9 °C 29.92in /  1013.1hPa ENE 7.0mph /  11.3km/h 13.0mph /  20.9km/h 65% 0.00in /  0mm
16:55 62.4 °F /  16.9 °C 50.5 °F /  10.3 °C 29.92in /  1013.1hPa ENE 6.0mph /  9.7km/h 11.0mph /  17.7km/h 65% 0.00in /  0mm
17:00 62.0 °F /  16.7 °C 49.7 °F /  9.8 °C 29.92in /  1013.1hPa ENE 8.0mph /  12.9km/h 13.0mph /  20.9km/h 64% 0.00in /  0mm
17:05 62.7 °F /  17.1 °C 49.9 °F /  9.9 °C 29.92in /  1013.1hPa NE 9.0mph /  14.5km/h 13.0mph /  20.9km/h 63% 0.00in /  0mm
17:10 63.0 °F /  17.2 °C 50.2 °F /  10.1 °C 29.92in /  1013.1hPa NE 4.0mph /  6.4km/h 12.0mph /  19.3km/h 63% 0.00in /  0mm
17:15 63.5 °F /  17.5 °C 51.1 °F /  10.6 °C 29.91in /  1012.8hPa ENE 9.0mph /  14.5km/h 11.0mph /  17.7km/h 64% 0.00in /  0mm
17:20 63.8 °F /  17.7 °C 50.5 °F /  10.3 °C 29.91in /  1012.8hPa NE 7.0mph /  11.3km/h 14.0mph /  22.5km/h 62% 0.00in /  0mm
17:25 64.2 °F /  17.9 °C 51.3 °F /  10.7 °C 29.91in /  1012.8hPa NE 7.0mph /  11.3km/h 14.0mph /  22.5km/h 63% 0.00in /  0mm
17:30 64.3 °F /  17.9 °C 51.4 °F /  10.8 °C 29.92in /  1013.1hPa ENE 2.0mph /  3.2km/h 11.0mph /  17.7km/h 63% 0.00in /  0mm
17:35 64.5 °F /  18.1 °C 51.2 °F /  10.7 °C 29.92in /  1013.1hPa NNE 4.0mph /  6.4km/h 14.0mph /  22.5km/h 62% 0.00in /  0mm
17:40 64.6 °F /  18.1 °C 51.3 °F /  10.7 °C 29.92in /  1013.1hPa ENE 10.0mph /  16.1km/h 12.0mph /  19.3km/h 62% 0.00in /  0mm
17:45 64.5 °F /  18.1 °C 51.2 °F /  10.7 °C 29.92in /  1013.1hPa ENE 3.0mph /  4.8km/h 11.0mph /  17.7km/h 62% 0.00in /  0mm
17:50 64.4 °F /  18 °C 51.5 °F /  10.8 °C 29.92in /  1013.1hPa NE 5.0mph /  8km/h 11.0mph /  17.7km/h 63% 0.00in /  0mm
17:55 64.4 °F /  18 °C 52.0 °F /  11.1 °C 29.92in /  1013.1hPa NE 4.0mph /  6.4km/h 9.0mph /  14.5km/h 64% 0.00in /  0mm
18:00 64.2 °F /  17.9 °C 51.3 °F /  10.7 °C 29.92in /  1013.1hPa NE 4.0mph /  6.4km/h 9.0mph /  14.5km/h 63% 0.00in /  0mm
18:05 64.0 °F /  17.8 °C 51.6 °F /  10.9 °C 29.92in /  1013.1hPa NE 1.0mph /  1.6km/h 10.0mph /  16.1km/h 64% 0.00in /  0mm
18:10 63.6 °F /  17.6 °C 51.2 °F /  10.7 °C 29.91in /  1012.8hPa NE 4.0mph /  6.4km/h 6.0mph /  9.7km/h 64% 0.00in /  0mm
18:15 62.5 °F /  16.9 °C 50.6 °F /  10.3 °C 29.91in /  1012.8hPa North 4.0mph /  6.4km/h 6.0mph /  9.7km/h 65% 0.00in /  0mm
18:20 61.3 °F /  16.3 °C 49.8 °F /  9.9 °C 29.91in /  1012.8hPa NNE 4.0mph /  6.4km/h 7.0mph /  11.3km/h 66% 0.00in /  0mm
18:25 60.5 °F /  15.8 °C 49.5 °F /  9.7 °C 29.90in /  1012.4hPa NNE 4.0mph /  6.4km/h 10.0mph /  16.1km/h 67% 0.00in /  0mm
18:30 59.9 °F /  15.5 °C 48.9 °F /  9.4 °C 29.90in /  1012.4hPa NE 6.0mph /  9.7km/h 10.0mph /  16.1km/h 67% 0.00in /  0mm
18:35 59.2 °F /  15.1 °C 50.2 °F /  10.1 °C 29.94in /  1013.8hPa NW 2.0mph /  3.2km/h 9.0mph /  14.5km/h 72% 0.02in /  0.51mm
18:40 57.3 °F /  14.1 °C 49.8 °F /  9.9 °C 29.96in /  1014.4hPa NNW 1.0mph /  1.6km/h 8.0mph /  12.9km/h 76% 0.06in /  1.52mm
18:45 55.9 °F /  13.3 °C 50.2 °F /  10.1 °C 29.95in /  1014.1hPa NNW 2.0mph /  3.2km/h 3.0mph /  4.8km/h 81% 0.24in /  6.1mm
18:50 55.1 °F /  12.8 °C 50.4 °F /  10.2 °C 29.93in /  1013.4hPa NNE 2.0mph /  3.2km/h 5.0mph /  8km/h 84% 0.27in /  6.86mm
18:55 54.8 °F /  12.7 °C 50.4 °F /  10.2 °C 29.93in /  1013.4hPa NNE 3.0mph /  4.8km/h 6.0mph /  9.7km/h 85% 0.27in /  6.86mm
19:00 54.7 °F /  12.6 °C 50.6 °F /  10.3 °C 29.94in /  1013.8hPa North 3.0mph /  4.8km/h 6.0mph /  9.7km/h 86% 0.27in /  6.86mm
19:05 54.6 °F /  12.6 °C 50.5 °F /  10.3 °C 29.93in /  1013.4hPa North 2.0mph /  3.2km/h 5.0mph /  8km/h 86% 0.27in /  6.86mm
19:10 54.4 °F /  12.4 °C 50.3 °F /  10.2 °C 29.92in /  1013.1hPa NE 4.0mph /  6.4km/h 7.0mph /  11.3km/h 86% 0.28in /  7.11mm
19:15 54.2 °F /  12.3 °C 50.1 °F /  10.1 °C 29.93in /  1013.4hPa NE 3.0mph /  4.8km/h 9.0mph /  14.5km/h 86% 0.28in /  7.11mm
19:20 54.1 °F /  12.3 °C 50.0 °F /  10 °C 29.93in /  1013.4hPa NE 4.0mph /  6.4km/h 10.0mph /  16.1km/h 86% 0.28in /  7.11mm
19:25 54.0 °F /  12.2 °C 49.9 °F /  9.9 °C 29.93in /  1013.4hPa ENE 7.0mph /  11.3km/h 11.0mph /  17.7km/h 86% 0.28in /  7.11mm
19:30 53.9 °F /  12.2 °C 49.8 °F /  9.9 °C 29.93in /  1013.4hPa NNE 4.0mph /  6.4km/h 10.0mph /  16.1km/h 86% 0.28in /  7.11mm
19:35 53.8 °F /  12.1 °C 49.7 °F /  9.8 °C 29.92in /  1013.1hPa NE 4.0mph /  6.4km/h 9.0mph /  14.5km/h 86% 0.26in /  6.6mm
19:40 53.4 °F /  11.9 °C 49.3 °F /  9.6 °C 29.92in /  1013.1hPa NNE 3.0mph /  4.8km/h 7.0mph /  11.3km/h 86% 0.22in /  5.59mm
19:45 52.6 °F /  11.4 °C 48.2 °F /  9 °C 29.93in /  1013.4hPa NNE 4.0mph /  6.4km/h 12.0mph /  19.3km/h 85% 0.04in /  1.02mm
19:50 51.9 °F /  11.1 °C 47.5 °F /  8.6 °C 29.93in /  1013.4hPa NNE 4.0mph /  6.4km/h 12.0mph /  19.3km/h 85% 0.01in /  0.25mm
19:55 51.4 °F /  10.8 °C 47.0 °F /  8.3 °C 29.93in /  1013.4hPa NNE 4.0mph /  6.4km/h 10.0mph /  16.1km/h 85% 0.01in /  0.25mm
20:00 50.7 °F /  10.4 °C 46.4 °F /  8 °C 29.93in /  1013.4hPa NNE 4.0mph /  6.4km/h 10.0mph /  16.1km/h 85% 0.01in /  0.25mm
20:05 50.3 °F /  10.2 °C 46.0 °F /  7.8 °C 29.93in /  1013.4hPa NNE 3.0mph /  4.8km/h 5.0mph /  8km/h 85% 0.01in /  0.25mm
20:10 49.8 °F /  9.9 °C 45.8 °F /  7.7 °C 29.93in /  1013.4hPa ENE 7.0mph /  11.3km/h 14.0mph /  22.5km/h 86% 0.00in /  0mm
20:15 49.4 °F /  9.7 °C 45.4 °F /  7.4 °C 29.93in /  1013.4hPa ENE 4.0mph /  6.4km/h 12.0mph /  19.3km/h 86% 0.00in /  0mm
20:20 49.2 °F /  9.6 °C 45.2 °F /  7.3 °C 29.93in /  1013.4hPa NE 5.0mph /  8km/h 12.0mph /  19.3km/h 86% 0.00in /  0mm
20:25 48.8 °F /  9.3 °C 44.8 °F /  7.1 °C 29.92in /  1013.1hPa NE 6.0mph /  9.7km/h 14.0mph /  22.5km/h 86% 0.00in /  0mm
20:30 48.3 °F /  9.1 °C 44.3 °F /  6.8 °C 29.92in /  1013.1hPa NE 7.0mph /  11.3km/h 15.0mph /  24.1km/h 86% 0.00in /  0mm
20:35 47.9 °F /  8.8 °C 43.9 °F /  6.6 °C 29.92in /  1013.1hPa NE 7.0mph /  11.3km/h 14.0mph /  22.5km/h 86% 0.00in /  0mm
20:40 47.5 °F /  8.6 °C 43.8 °F /  6.6 °C 29.92in /  1013.1hPa NE 8.0mph /  12.9km/h 14.0mph /  22.5km/h 87% 0.00in /  0mm
20:45 47.2 °F /  8.4 °C 43.5 °F /  6.4 °C 29.92in /  1013.1hPa NE 8.0mph /  12.9km/h 14.0mph /  22.5km/h 87% 0.00in /  0mm
20:50 47.0 °F /  8.3 °C 43.3 °F /  6.3 °C 29.91in /  1012.8hPa NE 5.0mph /  8km/h 15.0mph /  24.1km/h 87% 0.00in /  0mm
20:55 46.8 °F /  8.2 °C 43.1 °F /  6.2 °C 29.92in /  1013.1hPa East 6.0mph /  9.7km/h 15.0mph /  24.1km/h 87% 0.00in /  0mm
21:00 46.6 °F /  8.1 °C 43.2 °F /  6.2 °C 29.92in /  1013.1hPa NE 8.0mph /  12.9km/h 15.0mph /  24.1km/h 88% 0.00in /  0mm
21:05 46.6 °F /  8.1 °C 43.2 °F /  6.2 °C 29.91in /  1012.8hPa NE 7.0mph /  11.3km/h 15.0mph /  24.1km/h 88% 0.00in /  0mm
21:10 46.5 °F /  8.1 °C 43.1 °F /  6.2 °C 29.91in /  1012.8hPa NE 8.0mph /  12.9km/h 15.0mph /  24.1km/h 88% 0.00in /  0mm
21:15 46.5 °F /  8.1 °C 43.1 °F /  6.2 °C 29.91in /  1012.8hPa NE 8.0mph /  12.9km/h 13.0mph /  20.9km/h 88% 0.00in /  0mm
21:20 46.5 °F /  8.1 °C 43.4 °F /  6.3 °C 29.91in /  1012.8hPa NE 7.0mph /  11.3km/h 13.0mph /  20.9km/h 89% 0.00in /  0mm
21:25 46.7 °F /  8.2 °C 43.6 °F /  6.4 °C 29.90in /  1012.4hPa ENE 6.0mph /  9.7km/h 12.0mph /  19.3km/h 89% 0.00in /  0mm
21:30 46.7 °F /  8.2 °C 43.6 °F /  6.4 °C 29.91in /  1012.8hPa ENE 5.0mph /  8km/h 12.0mph /  19.3km/h 89% 0.00in /  0mm
21:35 46.5 °F /  8.1 °C 43.4 °F /  6.3 °C 29.90in /  1012.4hPa ENE 5.0mph /  8km/h 11.0mph /  17.7km/h 89% 0.00in /  0mm
21:40 46.5 °F /  8.1 °C 43.1 °F /  6.2 °C 29.90in /  1012.4hPa ENE 6.0mph /  9.7km/h 15.0mph /  24.1km/h 88% 0.00in /  0mm
21:45 46.3 °F /  7.9 °C 43.2 °F /  6.2 °C 29.90in /  1012.4hPa ENE 4.0mph /  6.4km/h 12.0mph /  19.3km/h 89% 0.00in /  0mm
21:50 46.2 °F /  7.9 °C 43.1 °F /  6.2 °C 29.89in /  1012.1hPa East 3.0mph /  4.8km/h 11.0mph /  17.7km/h 89% 0.00in /  0mm
21:55 46.2 °F /  7.9 °C 43.1 °F /  6.2 °C 29.90in /  1012.4hPa East 7.0mph /  11.3km/h 9.0mph /  14.5km/h 89% 0.00in /  0mm
22:00 46.2 °F /  7.9 °C 43.1 °F /  6.2 °C 29.89in /  1012.1hPa ENE 7.0mph /  11.3km/h 10.0mph /  16.1km/h 89% 0.00in /  0mm
22:05 46.2 °F /  7.9 °C 43.1 °F /  6.2 °C 29.89in /  1012.1hPa ENE 4.0mph /  6.4km/h 11.0mph /  17.7km/h 89% 0.00in /  0mm
22:10 46.1 °F /  7.8 °C 43.0 °F /  6.1 °C 29.88in /  1011.7hPa ENE 5.0mph /  8km/h 11.0mph /  17.7km/h 89% 0.00in /  0mm
22:15 46.2 °F /  7.9 °C 43.1 °F /  6.2 °C 29.88in /  1011.7hPa ENE 5.0mph /  8km/h 10.0mph /  16.1km/h 89% 0.00in /  0mm
22:20 46.3 °F /  7.9 °C 43.2 °F /  6.2 °C 29.88in /  1011.7hPa ENE 4.0mph /  6.4km/h 13.0mph /  20.9km/h 89% 0.00in /  0mm
22:25 46.4 °F /  8 °C 43.3 °F /  6.3 °C 29.88in /  1011.7hPa ENE 4.0mph /  6.4km/h 13.0mph /  20.9km/h 89% 0.00in /  0mm
22:30 46.5 °F /  8.1 °C 43.4 °F /  6.3 °C 29.88in /  1011.7hPa NE 5.0mph /  8km/h 9.0mph /  14.5km/h 89% 0.00in /  0mm
22:35 46.7 °F /  8.2 °C 43.6 °F /  6.4 °C 29.87in /  1011.4hPa East 5.0mph /  8km/h 8.0mph /  12.9km/h 89% 0.00in /  0mm
22:40 46.8 °F /  8.2 °C 43.7 °F /  6.5 °C 29.86in /  1011.1hPa ENE 4.0mph /  6.4km/h 8.0mph /  12.9km/h 89% 0.00in /  0mm
22:45 46.9 °F /  8.3 °C 43.8 °F /  6.6 °C 29.86in /  1011.1hPa ENE 3.0mph /  4.8km/h 8.0mph /  12.9km/h 89% 0.00in /  0mm
22:50 47.0 °F /  8.3 °C 43.9 °F /  6.6 °C 29.86in /  1011.1hPa ENE 3.0mph /  4.8km/h 8.0mph /  12.9km/h 89% 0.00in /  0mm
22:55 47.4 °F /  8.6 °C 44.3 °F /  6.8 °C 29.91in /  1012.8hPa NE 3.0mph /  4.8km/h 10.0mph /  16.1km/h 89% 0.00in /  0mm
23:00 47.4 °F /  8.6 °C 44.0 °F /  6.7 °C 29.93in /  1013.4hPa WNW 6.0mph /  9.7km/h 18.0mph /  29km/h 88% 0.00in /  0mm
23:05 46.7 °F /  8.2 °C 43.3 °F /  6.3 °C 29.93in /  1013.4hPa NW 3.0mph /  4.8km/h 20.0mph /  32.2km/h 88% 0.02in /  0.51mm
23:10 46.0 °F /  7.8 °C 42.6 °F /  5.9 °C 29.93in /  1013.4hPa NNW 7.0mph /  11.3km/h 20.0mph /  32.2km/h 88% 0.04in /  1.02mm
23:15 45.5 °F /  7.5 °C 42.2 °F /  5.7 °C 29.92in /  1013.1hPa North 2.0mph /  3.2km/h 12.0mph /  19.3km/h 88% 0.05in /  1.27mm
23:20 45.3 °F /  7.4 °C 42.2 °F /  5.7 °C 29.91in /  1012.8hPa NNE 6.0mph /  9.7km/h 9.0mph /  14.5km/h 89% 0.05in /  1.27mm
23:25 45.2 °F /  7.3 °C 42.2 °F /  5.7 °C 29.94in /  1013.8hPa WNW 7.0mph /  11.3km/h 11.0mph /  17.7km/h 89% 0.05in /  1.27mm
23:30 45.1 °F /  7.3 °C 42.1 °F /  5.6 °C 29.93in /  1013.4hPa NNW 5.0mph /  8km/h 16.0mph /  25.7km/h 89% 0.05in /  1.27mm
23:35 44.9 °F /  7.2 °C 41.9 °F /  5.5 °C 29.94in /  1013.8hPa North 7.0mph /  11.3km/h 13.0mph /  20.9km/h 89% 0.05in /  1.27mm
23:40 44.8 °F /  7.1 °C 42.0 °F /  5.6 °C 29.92in /  1013.1hPa North 6.0mph /  9.7km/h 14.0mph /  22.5km/h 90% 0.05in /  1.27mm
23:45 45.1 °F /  7.3 °C 42.3 °F /  5.7 °C 29.91in /  1012.8hPa NE 4.0mph /  6.4km/h 14.0mph /  22.5km/h 90% 0.05in /  1.27mm
23:50 45.4 °F /  7.4 °C 42.6 °F /  5.9 °C 29.90in /  1012.4hPa ENE 3.0mph /  4.8km/h 7.0mph /  11.3km/h 90% 0.05in /  1.27mm
23:55 46.0 °F /  7.8 °C 43.5 °F /  6.4 °C 29.90in /  1012.4hPa NE 2.0mph /  3.2km/h 5.0mph /  8km/h 91% 0.07in /  1.78mm
Buffalo, New York, USA
Compliments of Weather Underground - 2.5 mb